Time;durP1;ratioP1;P1;durP2;ratioP2;P2;SDS_P1;SDS_P2;PMS_P1;PMS_P2;Temp;Humidity;BMP_temperature;BMP_pressure;BME280_temperature;BME280_humidity;BME280_pressure;Samples;Min_cycle;Max_cycle;Signal;HPM_P1;HPM_P2
2022/09/09 00:02:24;;;;;;;0.88;0.88;;;19.30;67.30;;;;;;5028115;28;20048;-50
2022/09/09 00:05:20;;;;;;;2.72;0.40;;;19.30;67.70;;;;;;5075445;23;20044;-48
2022/09/09 00:07:56;;;;;;;2.88;0.95;;;19.30;67.60;;;;;;5072185;28;20047;-46
2022/09/09 00:10:36;;;;;;;0.60;0.20;;;19.20;67.40;;;;;;5056277;28;20048;-47
2022/09/09 00:13:31;;;;;;;0.38;0.20;;;19.20;67.80;;;;;;5072939;28;20047;-50
2022/09/09 00:16:23;;;;;;;2.13;0.57;;;19.20;67.80;;;;;;5071080;28;20041;-49
2022/09/09 00:19:25;;;;;;;1.13;0.43;;;19.10;67.20;;;;;;5077035;28;20095;-47
2022/09/09 00:22:17;;;;;;;2.08;0.73;;;19.10;67.90;;;;;;5075899;28;20033;-49
2022/09/09 00:24:53;;;;;;;2.33;1.15;;;19.00;67.70;;;;;;5075534;28;20038;-49
2022/09/09 00:27:40;;;;;;;1.13;0.60;;;19.00;67.80;;;;;;5067049;28;20119;-50
2022/09/09 00:30:26;;;;;;;2.15;1.05;;;19.00;68.10;;;;;;5076811;28;20111;-49
2022/09/09 00:33:02;;;;;;;2.20;0.60;;;19.00;68.10;;;;;;5059909;28;20091;-48
2022/09/09 00:35:45;;;;;;;1.85;0.50;;;18.90;68.00;;;;;;5074767;28;20095;-52
2022/09/09 00:38:34;;;;;;;1.30;0.55;;;18.90;68.10;;;;;;5074649;28;20045;-46
2022/09/09 00:41:20;;;;;;;0.88;0.50;;;18.90;68.60;;;;;;5059093;28;20052;-47
2022/09/09 00:44:00;;;;;;;1.08;0.43;;;18.90;68.30;;;;;;5072757;28;20046;-49
2022/09/09 00:46:50;;;;;;;1.73;0.45;;;18.80;68.00;;;;;;5079962;28;20106;-47
2022/09/09 00:49:36;;;;;;;0.50;0.50;;;18.80;68.40;;;;;;5068528;28;20504;-48
2022/09/09 00:52:34;;;;;;;0.40;0.40;;;18.80;68.60;;;;;;5076943;28;20115;-47
2022/09/09 00:55:15;;;;;;;1.58;0.40;;;18.80;68.50;;;;;;5057812;28;20056;-48
2022/09/09 00:57:42;;;;;;;2.58;0.40;;;18.80;68.30;;;;;;5075544;28;20036;-46
2022/09/09 01:00:22;;;;;;;2.03;0.60;;;18.70;67.90;;;;;;5060677;28;20044;-48
2022/09/09 01:02:59;;;;;;;1.33;0.50;;;18.70;68.60;;;;;;5070089;28;20052;-47
2022/09/09 01:05:53;;;;;;;1.60;1.02;;;18.70;68.70;;;;;;5050462;28;20476;-48
2022/09/09 01:08:55;;;;;;;0.57;0.45;;;18.60;69.00;;;;;;5076516;28;20051;-47
2022/09/09 01:11:29;;;;;;;2.00;0.60;;;18.60;69.00;;;;;;5079327;28;20513;-49
2022/09/09 01:14:10;;;;;;;0.98;0.60;;;18.60;68.40;;;;;;5057246;28;20044;-49
2022/09/09 01:16:38;;;;;;;2.47;0.90;;;18.60;68.70;;;;;;5053257;28;20055;-50
2022/09/09 01:19:10;;;;;;;0.90;0.52;;;18.50;68.20;;;;;;5056580;28;20040;-48
2022/09/09 01:21:58;;;;;;;0.52;0.28;;;18.50;68.40;;;;;;5053856;28;20629;-48
2022/09/09 01:24:33;;;;;;;0.85;0.40;;;18.50;68.90;;;;;;5034634;28;20047;-50
2022/09/09 01:27:09;;;;;;;0.85;0.50;;;18.50;69.40;;;;;;5052871;28;20049;-51
2022/09/09 01:29:37;;;;;;;2.97;0.57;;;18.50;68.30;;;;;;5079419;28;20044;-49
2022/09/09 01:32:41;;;;;;;1.17;0.40;;;18.50;68.50;;;;;;5054037;28;20071;-50
2022/09/09 01:35:36;;;;;;;1.73;0.68;;;18.50;69.40;;;;;;5054152;28;20056;-54
2022/09/09 01:38:06;;;;;;;2.13;0.60;;;18.40;69.30;;;;;;5058736;28;20044;-50
2022/09/09 01:40:41;;;;;;;1.73;0.50;;;18.40;68.50;;;;;;5053360;28;20036;-48
2022/09/09 01:43:13;;;;;;;2.20;0.50;;;18.40;68.60;;;;;;5070416;28;20041;-47
2022/09/09 01:45:42;;;;;;;1.60;0.73;;;18.40;68.80;;;;;;5058890;28;20078;-47
2022/09/09 01:48:10;;;;;;;1.10;0.68;;;18.40;68.90;;;;;;5074198;28;20033;-47
2022/09/09 01:50:51;;;;;;;0.75;0.45;;;18.40;68.90;;;;;;5066695;28;20563;-50
2022/09/09 01:53:22;;;;;;;2.22;0.55;;;18.40;68.90;;;;;;5053890;28;20041;-51
2022/09/09 01:56:25;;;;;;;1.35;0.47;;;18.40;69.00;;;;;;5056839;28;20106;-48
2022/09/09 01:59:03;;;;;;;0.70;0.50;;;18.40;69.50;;;;;;5050308;28;20047;-47
2022/09/09 02:01:42;;;;;;;1.35;0.50;;;18.40;68.80;;;;;;5052439;28;20041;-47
2022/09/09 02:04:39;;;;;;;2.22;0.68;;;18.40;69.40;;;;;;5056525;28;20545;-48
2022/09/09 02:07:44;;;;;;;1.75;0.57;;;18.40;69.30;;;;;;5054989;28;20412;-47
2022/09/09 02:10:40;;;;;;;0.68;0.57;;;18.40;69.40;;;;;;5053630;28;20047;-47
2022/09/09 02:13:19;;;;;;;0.85;0.50;;;18.40;69.60;;;;;;5053632;28;20052;-47
2022/09/09 02:15:53;;;;;;;1.75;0.73;;;18.30;68.90;;;;;;5075328;28;20055;-50
2022/09/09 02:18:30;;;;;;;3.20;0.88;;;18.30;69.20;;;;;;5052241;28;20079;-51
2022/09/09 02:20:59;;;;;;;2.28;0.80;;;18.30;69.20;;;;;;5052880;28;20036;-47
2022/09/09 02:23:31;;;;;;;1.98;0.93;;;18.30;69.20;;;;;;5053469;28;20036;-47
2022/09/09 02:26:04;;;;;;;1.75;0.60;;;18.30;69.40;;;;;;5073228;28;20040;-48
2022/09/09 02:28:34;;;;;;;1.40;0.70;;;18.30;69.40;;;;;;5070248;28;20098;-51
2022/09/09 02:31:02;;;;;;;1.10;0.90;;;18.20;69.40;;;;;;5070438;28;20063;-52
2022/09/09 02:33:44;;;;;;;1.00;0.80;;;18.30;69.40;;;;;;5055081;28;20053;-47
2022/09/09 02:36:18;;;;;;;4.10;1.13;;;18.30;69.70;;;;;;5070108;28;20028;-47
2022/09/09 02:38:52;;;;;;;3.65;1.00;;;18.30;69.30;;;;;;5053705;28;20036;-48
2022/09/09 02:41:34;;;;;;;1.20;1.02;;;18.20;69.40;;;;;;5054541;28;20044;-49
2022/09/09 02:44:01;;;;;;;1.90;1.17;;;18.20;70.20;;;;;;5058658;28;20139;-51
2022/09/09 02:46:56;;;;;;;1.25;1.15;;;18.20;69.50;;;;;;5058975;28;20040;-47
2022/09/09 02:49:41;;;;;;;4.20;1.05;;;18.20;70.10;;;;;;5053220;28;20036;-47
2022/09/09 02:52:20;;;;;;;4.70;1.08;;;18.20;70.00;;;;;;5051909;28;20048;-48
2022/09/09 02:54:57;;;;;;;1.88;0.88;;;18.20;70.40;;;;;;5071952;28;20047;-47
2022/09/09 02:57:30;;;;;;;1.90;0.77;;;18.20;70.20;;;;;;5060328;28;20047;-49
2022/09/09 03:00:02;;;;;;;1.75;0.90;;;18.20;70.10;;;;;;5071213;28;20553;-47
2022/09/09 03:02:33;;;;;;;2.38;1.20;;;18.20;70.00;;;;;;5054915;28;20070;-48
2022/09/09 03:05:06;;;;;;;2.47;0.80;;;18.10;70.00;;;;;;5036013;28;20044;-48
2022/09/09 03:07:35;;;;;;;3.50;1.17;;;18.10;70.20;;;;;;5069533;28;20064;-54
2022/09/09 03:10:08;;;;;;;2.30;0.85;;;18.10;70.20;;;;;;5057564;28;20094;-47
2022/09/09 03:12:38;;;;;;;1.45;1.05;;;18.10;70.50;;;;;;5069786;28;20041;-50
2022/09/09 03:15:07;;;;;;;3.47;0.95;;;18.10;70.40;;;;;;5069104;28;20032;-48
2022/09/09 03:17:37;;;;;;;2.60;1.45;;;18.10;70.50;;;;;;5069635;28;20106;-47
2022/09/09 03:20:04;;;;;;;2.63;0.90;;;18.10;70.50;;;;;;5055086;28;20064;-50
2022/09/09 03:22:32;;;;;;;1.52;0.88;;;18.10;70.60;;;;;;5050627;28;20043;-49
2022/09/09 03:25:09;;;;;;;3.03;0.80;;;18.10;70.70;;;;;;5052167;28;20048;-47
2022/09/09 03:27:37;;;;;;;4.30;0.90;;;18.10;70.70;;;;;;5068608;28;20120;-47
2022/09/09 03:30:05;;;;;;;3.05;0.98;;;18.10;70.70;;;;;;5052956;28;20036;-48
2022/09/09 03:32:31;;;;;;;1.90;0.90;;;18.10;70.70;;;;;;5051947;28;20040;-51
2022/09/09 03:35:00;;;;;;;1.63;1.10;;;18.10;70.70;;;;;;5059947;28;20071;-49
2022/09/09 03:37:27;;;;;;;2.22;1.20;;;18.10;70.70;;;;;;5051549;28;20527;-47
2022/09/09 03:39:57;;;;;;;2.53;1.55;;;18.10;70.80;;;;;;5056916;28;20059;-47
2022/09/09 03:42:25;;;;;;;2.25;0.88;;;18.10;70.80;;;;;;5051312;28;20555;-47
2022/09/09 03:44:59;;;;;;;2.20;1.00;;;18.10;70.90;;;;;;5052574;28;20067;-49
2022/09/09 03:47:33;;;;;;;3.03;1.10;;;18.10;70.80;;;;;;5054621;28;20047;-46
2022/09/09 03:50:08;;;;;;;3.63;0.70;;;18.10;70.80;;;;;;5069781;28;20048;-46
2022/09/09 03:52:43;;;;;;;3.45;1.10;;;18.20;71.00;;;;;;5051449;28;20048;-46
2022/09/09 03:55:26;;;;;;;3.55;1.35;;;18.10;71.00;;;;;;5070500;28;20063;-46
2022/09/09 03:57:53;;;;;;;3.25;1.02;;;18.20;71.10;;;;;;5047871;28;20036;-47
2022/09/09 04:00:22;;;;;;;2.90;1.05;;;18.20;71.30;;;;;;5046690;28;20509;-45
2022/09/09 04:02:54;;;;;;;3.40;1.08;;;18.20;71.40;;;;;;5051543;28;20044;-45
2022/09/09 04:05:23;;;;;;;3.28;1.00;;;18.20;71.60;;;;;;5050954;28;20045;-47
2022/09/09 04:07:53;;;;;;;1.92;1.08;;;18.30;71.60;;;;;;5054756;28;20055;-45
2022/09/09 04:10:21;;;;;;;3.90;1.33;;;18.30;71.40;;;;;;5051571;28;20041;-47
2022/09/09 04:12:48;;;;;;;2.60;1.00;;;18.30;71.30;;;;;;5051483;28;20135;-45
2022/09/09 04:15:15;;;;;;;2.80;0.80;;;18.30;71.30;;;;;;5054048;28;20971;-46
2022/09/09 04:17:45;;;;;;;3.55;1.27;;;18.30;71.30;;;;;;5054312;28;20052;-47
2022/09/09 04:20:12;;;;;;;1.92;0.90;;;18.40;71.30;;;;;;5068991;28;20417;-46
2022/09/09 04:22:38;;;;;;;1.42;1.13;;;18.40;71.40;;;;;;5051137;28;20044;-47
2022/09/09 04:25:06;;;;;;;6.47;1.45;;;18.40;71.30;;;;;;5051622;28;20040;-47
2022/09/09 04:27:34;;;;;;;2.80;0.90;;;18.40;72.10;;;;;;5054938;28;20037;-47
2022/09/09 04:30:03;;;;;;;2.53;0.68;;;18.40;71.50;;;;;;5051023;28;20049;-47
2022/09/09 04:32:35;;;;;;;1.83;1.00;;;18.50;71.40;;;;;;5051139;28;20045;-46
2022/09/09 04:35:02;;;;;;;3.10;0.98;;;18.50;71.50;;;;;;5071469;28;20040;-46
2022/09/09 04:37:33;;;;;;;5.90;1.40;;;18.50;71.50;;;;;;5052724;28;20442;-47
2022/09/09 04:40:02;;;;;;;3.42;1.65;;;18.50;71.40;;;;;;5052445;28;20513;-47
2022/09/09 04:42:36;;;;;;;;;;;18.60;71.50;;;;;;5051486;28;20048;-48
2022/09/09 04:45:03;;;;;;;2.38;0.70;;;18.60;71.60;;;;;;5051997;28;20431;-46
2022/09/09 04:47:31;;;;;;;2.65;1.40;;;18.60;70.80;;;;;;5057184;28;20491;-47
2022/09/09 04:49:58;;;;;;;2.80;1.02;;;18.60;71.00;;;;;;5052836;28;20131;-47
2022/09/09 04:52:25;;;;;;;1.67;1.13;;;18.60;71.30;;;;;;5073457;28;20074;-48
2022/09/09 04:54:55;;;;;;;2.25;1.00;;;18.60;71.90;;;;;;5060392;28;20035;-47
2022/09/09 04:57:22;;;;;;;4.07;1.10;;;18.70;71.40;;;;;;5055677;28;20047;-47
2022/09/09 04:59:48;;;;;;;4.15;1.10;;;18.70;71.40;;;;;;5054674;28;20028;-47
2022/09/09 05:02:15;;;;;;;1.80;0.85;;;18.70;71.40;;;;;;5067642;28;20085;-48
2022/09/09 05:04:42;;;;;;;2.80;1.20;;;18.70;71.40;;;;;;5052145;28;20413;-48
2022/09/09 05:07:09;;;;;;;2.20;1.15;;;18.70;71.30;;;;;;5051253;28;20063;-48
2022/09/09 05:09:35;;;;;;;4.50;1.58;;;18.70;71.30;;;;;;5047746;28;20041;-46
2022/09/09 05:12:04;;;;;;;6.22;1.67;;;18.70;71.10;;;;;;5054593;28;20523;-47
2022/09/09 05:14:37;;;;;;;2.90;1.00;;;18.80;71.10;;;;;;5058826;28;20043;-47
2022/09/09 05:17:04;;;;;;;1.60;0.85;;;18.70;70.90;;;;;;5047127;28;20040;-46
2022/09/09 05:19:32;;;;;;;3.53;1.05;;;18.70;71.00;;;;;;5063685;28;20061;-49
2022/09/09 05:21:59;;;;;;;1.15;1.05;;;18.70;70.90;;;;;;5064903;28;20035;-48
2022/09/09 05:24:33;;;;;;;3.40;1.58;;;18.80;70.90;;;;;;5068030;28;20087;-49
2022/09/09 05:27:02;;;;;;;2.33;0.98;;;18.80;70.80;;;;;;5050462;28;20040;-48
2022/09/09 05:29:29;;;;;;;7.07;1.60;;;18.80;70.70;;;;;;5054003;28;20119;-46
2022/09/09 05:31:56;;;;;;;4.50;1.25;;;18.70;70.70;;;;;;5056438;28;20044;-48
2022/09/09 05:34:24;;;;;;;6.15;1.20;;;18.80;70.80;;;;;;5055282;28;20128;-52
2022/09/09 05:36:51;;;;;;;2.47;1.10;;;18.80;70.70;;;;;;5051465;28;20094;-52
2022/09/09 05:39:19;;;;;;;2.30;1.10;;;18.80;70.70;;;;;;5043919;28;20041;-51
2022/09/09 05:41:46;;;;;;;2.33;0.85;;;18.80;70.70;;;;;;5053626;28;20048;-53
2022/09/09 05:44:13;;;;;;;2.83;1.00;;;18.70;70.60;;;;;;5057369;28;20059;-54
2022/09/09 05:46:45;;;;;;;2.30;1.25;;;18.70;70.50;;;;;;5070735;28;20055;-54
2022/09/09 05:49:15;;;;;;;1.60;1.15;;;18.70;70.60;;;;;;5051975;28;20103;-49
2022/09/09 05:51:43;;;;;;;2.10;0.95;;;18.70;70.60;;;;;;5056995;28;20048;-52
2022/09/09 05:54:15;;;;;;;6.10;1.73;;;18.70;70.60;;;;;;5052714;28;20040;-50
2022/09/09 05:56:46;;;;;;;7.70;1.33;;;18.60;70.60;;;;;;5052524;28;20037;-53
2022/09/09 05:59:18;;;;;;;2.25;1.00;;;18.60;70.70;;;;;;5063316;28;20770;-55
2022/09/09 06:01:45;;;;;;;3.42;1.40;;;18.60;70.70;;;;;;5056725;28;20050;-54
2022/09/09 06:04:26;;;;;;;3.03;1.08;;;18.70;70.90;;;;;;5044840;28;20044;-52
2022/09/09 06:06:55;;;;;;;3.13;1.45;;;18.60;70.80;;;;;;5070578;28;20091;-54
2022/09/09 06:09:22;;;;;;;2.85;1.15;;;18.60;70.80;;;;;;5054719;28;20044;-54
2022/09/09 06:11:54;;;;;;;2.65;1.42;;;18.60;70.80;;;;;;5055506;28;20131;-52
2022/09/09 06:14:22;;;;;;;2.28;1.40;;;18.60;70.90;;;;;;5055139;28;20420;-51
2022/09/09 06:16:51;;;;;;;6.45;1.25;;;18.60;70.80;;;;;;5058557;28;20444;-50
2022/09/09 06:19:21;;;;;;;3.83;1.10;;;18.70;70.80;;;;;;5062931;28;20040;-53
2022/09/09 06:21:50;;;;;;;3.63;0.90;;;18.70;70.90;;;;;;5054564;28;20040;-51
2022/09/09 06:24:22;;;;;;;2.47;1.88;;;18.60;70.80;;;;;;5051406;28;20041;-52
2022/09/09 06:26:48;;;;;;;2.15;1.30;;;18.70;70.80;;;;;;5053895;28;20103;-49
2022/09/09 06:29:20;;;;;;;3.90;0.97;;;18.70;70.80;;;;;;5055365;28;20103;-53
2022/09/09 06:31:47;;;;;;;4.65;1.40;;;18.70;70.80;;;;;;5069116;28;20560;-52
2022/09/09 06:34:21;;;;;;;4.05;1.10;;;18.70;70.80;;;;;;5045734;28;20416;-53
2022/09/09 06:36:55;;;;;;;6.28;1.90;;;18.70;70.70;;;;;;5052171;28;20044;-50
2022/09/09 06:39:22;;;;;;;3.20;1.27;;;18.70;70.80;;;;;;5047138;28;20040;-55
2022/09/09 06:41:53;;;;;;;3.85;1.17;;;18.70;70.70;;;;;;5051153;28;20501;-53
2022/09/09 06:44:49;;;;;;;5.60;1.25;;;18.70;70.70;;;;;;5029417;28;20562;-51
2022/09/09 06:47:27;;;;;;;2.28;1.17;;;18.70;70.60;;;;;;5054499;28;20044;-52
2022/09/09 06:49:56;;;;;;;6.75;1.73;;;18.70;70.70;;;;;;5049117;28;20703;-51
2022/09/09 06:52:25;;;;;;;4.68;1.02;;;18.70;70.80;;;;;;5069532;28;20052;-50
2022/09/09 06:54:53;;;;;;;4.03;1.40;;;18.70;71.00;;;;;;5053011;28;20048;-51
2022/09/09 06:57:20;;;;;;;3.67;1.10;;;18.80;71.40;;;;;;5063342;28;20457;-51
2022/09/09 07:00:13;;;;;;;3.97;1.75;;;18.80;71.70;;;;;;5051866;28;20054;-54
2022/09/09 07:02:40;;;;;;;4.35;1.20;;;18.90;72.20;;;;;;5066992;28;20044;-52
2022/09/09 07:05:09;;;;;;;3.55;1.10;;;19.00;71.40;;;;;;5033685;28;20548;-51
2022/09/09 07:07:38;;;;;;;4.40;2.00;;;19.10;71.00;;;;;;5055600;28;20412;-54
2022/09/09 07:10:07;;;;;;;3.85;0.95;;;19.20;71.00;;;;;;5050680;28;20572;-53
2022/09/09 07:12:35;;;;;;;2.65;1.25;;;19.30;70.40;;;;;;5048211;28;20073;-52
2022/09/09 07:15:02;;;;;;;3.58;1.23;;;19.40;70.40;;;;;;5049131;28;20097;-53
2022/09/09 07:17:31;;;;;;;4.20;1.30;;;19.50;70.30;;;;;;5051735;28;20131;-55
2022/09/09 07:19:59;;;;;;;4.32;1.50;;;19.50;70.10;;;;;;5050205;28;20037;-52
2022/09/09 07:22:28;;;;;;;3.00;0.80;;;19.60;69.60;;;;;;5069431;28;20374;-54
2022/09/09 07:24:55;;;;;;;2.00;1.20;;;19.70;69.30;;;;;;5075986;22;20040;-54
2022/09/09 07:27:22;;;;;;;1.95;1.00;;;19.80;69.30;;;;;;5070373;28;20044;-54
2022/09/09 07:29:49;;;;;;;4.00;1.15;;;19.90;69.00;;;;;;5099710;28;20039;-54
2022/09/09 07:32:19;;;;;;;2.65;1.08;;;20.00;68.60;;;;;;5088412;28;20040;-55
2022/09/09 07:34:46;;;;;;;2.50;0.93;;;20.00;68.30;;;;;;5085640;28;20127;-54
2022/09/09 07:37:15;;;;;;;1.40;0.88;;;20.10;67.90;;;;;;5079676;28;20064;-54
2022/09/09 07:39:46;;;;;;;3.67;1.20;;;20.10;67.60;;;;;;5084072;28;20062;-55
2022/09/09 07:42:17;;;;;;;3.55;1.27;;;20.10;67.20;;;;;;5091966;28;20040;-55
2022/09/09 07:44:43;;;;;;;2.40;1.50;;;20.10;67.00;;;;;;5083502;28;20499;-53
2022/09/09 07:47:13;;;;;;;3.13;0.90;;;20.10;66.80;;;;;;5074571;28;20067;-54
2022/09/09 07:49:49;;;;;;;4.93;0.95;;;20.10;66.80;;;;;;5078567;28;20044;-54
2022/09/09 07:52:20;;;;;;;2.25;1.70;;;20.10;66.90;;;;;;5080810;28;20043;-55
2022/09/09 07:54:56;;;;;;;4.32;1.15;;;20.00;66.60;;;;;;5083907;28;20113;-55
2022/09/09 07:57:23;;;;;;;4.85;1.95;;;20.00;66.70;;;;;;5075863;28;20504;-55
2022/09/09 07:59:52;;;;;;;4.88;1.15;;;20.00;66.70;;;;;;5073132;28;20567;-55
2022/09/09 08:02:19;;;;;;;5.25;1.50;;;20.00;66.80;;;;;;5071164;28;20035;-54
2022/09/09 08:04:46;;;;;;;4.20;1.20;;;20.00;66.60;;;;;;5064888;28;20049;-54
2022/09/09 08:07:16;;;;;;;3.85;1.80;;;20.00;66.40;;;;;;5072396;28;20071;-55
2022/09/09 08:09:49;;;;;;;3.30;0.80;;;20.00;66.50;;;;;;5064152;28;20093;-51
2022/09/09 08:12:21;;;;;;;10.18;1.48;;;20.00;66.50;;;;;;5072615;28;20173;-53
2022/09/09 08:14:48;;;;;;;5.43;2.03;;;20.00;66.20;;;;;;5066256;28;20037;-54
2022/09/09 08:17:19;;;;;;;7.00;1.35;;;20.00;66.50;;;;;;5078713;28;20385;-55
2022/09/09 08:19:46;;;;;;;5.57;1.20;;;20.10;66.50;;;;;;5081125;28;20499;-52
2022/09/09 08:22:19;;;;;;;3.63;1.33;;;20.20;66.30;;;;;;5077761;28;20039;-54
2022/09/09 08:24:47;;;;;;;4.10;0.85;;;20.30;66.10;;;;;;5064839;28;20068;-54
2022/09/09 08:27:13;;;;;;;4.60;1.73;;;20.40;66.10;;;;;;5094125;28;20071;-53
2022/09/09 08:29:44;;;;;;;5.00;1.35;;;20.60;65.50;;;;;;5082226;28;20055;-53
2022/09/09 08:32:11;;;;;;;5.03;1.00;;;20.60;64.70;;;;;;5086503;28;20527;-55
2022/09/09 08:34:38;;;;;;;2.55;0.80;;;20.80;65.00;;;;;;5090460;28;20208;-54
2022/09/09 08:37:14;;;;;;;6.10;1.13;;;20.90;64.30;;;;;;5089331;28;20028;-55
2022/09/09 08:39:43;;;;;;;2.53;1.60;;;21.00;64.10;;;;;;5092163;28;20062;-54
2022/09/09 08:42:25;;;;;;;2.65;0.82;;;21.10;63.90;;;;;;5086344;28;20055;-55
2022/09/09 08:45:24;;;;;;;4.20;1.30;;;21.20;62.90;;;;;;5099446;28;20535;-53
2022/09/09 08:48:10;;;;;;;1.70;1.13;;;21.30;62.30;;;;;;5083217;28;20070;-54
2022/09/09 08:50:40;;;;;;;2.95;0.90;;;21.40;60.90;;;;;;5102402;28;20058;-55
2022/09/09 08:53:33;;;;;;;6.43;0.85;;;21.40;61.50;;;;;;5087136;28;20519;-54
2022/09/09 08:56:08;;;;;;;2.90;0.82;;;21.50;61.00;;;;;;5101601;28;20036;-55
2022/09/09 08:58:48;;;;;;;4.07;0.68;;;21.50;61.00;;;;;;5083576;28;20047;-55
2022/09/09 09:01:43;;;;;;;5.53;0.93;;;21.60;61.00;;;;;;5074241;28;20126;-55
2022/09/09 09:04:28;;;;;;;3.83;1.08;;;21.60;60.40;;;;;;5069151;28;20036;-54
2022/09/09 09:07:33;;;;;;;3.40;0.73;;;21.70;60.50;;;;;;5075792;28;20032;-54
2022/09/09 09:10:18;;;;;;;1.30;0.80;;;21.80;60.00;;;;;;5085114;28;20032;-55
2022/09/09 09:13:40;;;;;;;4.18;0.88;;;21.90;60.40;;;;;;5093875;28;20046;-55
2022/09/09 09:16:18;;;;;;;;;;;22.00;59.30;;;;;;5078061;28;20036;-55
2022/09/09 09:18:50;;;;;;;4.40;0.80;;;22.10;59.60;;;;;;5075324;28;19920;-55
2022/09/09 09:21:22;;;;;;;3.60;0.95;;;22.20;59.60;;;;;;5078923;28;20071;-55
2022/09/09 09:23:59;;;;;;;5.18;1.00;;;22.30;59.00;;;;;;5088232;28;20047;-55
2022/09/09 09:26:35;;;;;;;2.17;0.63;;;22.50;58.50;;;;;;5058731;28;20091;-55
2022/09/09 09:29:11;;;;;;;3.20;0.80;;;22.60;57.80;;;;;;5089568;28;20070;-55
2022/09/09 09:31:41;;;;;;;8.60;1.42;;;22.60;56.90;;;;;;5073438;28;20040;-55
2022/09/09 09:34:11;;;;;;;4.85;0.93;;;22.70;56.90;;;;;;5064900;28;20052;-55
2022/09/09 09:36:46;;;;;;;2.03;0.88;;;22.80;56.70;;;;;;5077697;28;20127;-53
2022/09/09 09:39:24;;;;;;;2.47;0.73;;;22.80;56.60;;;;;;5080703;28;20034;-54
2022/09/09 09:42:17;;;;;;;2.28;1.02;;;22.80;56.00;;;;;;5075975;28;20061;-52
2022/09/09 09:44:52;;;;;;;3.05;0.55;;;22.90;55.80;;;;;;5090680;28;20048;-55
2022/09/09 09:47:23;;;;;;;2.45;0.55;;;22.80;55.70;;;;;;5081124;28;20577;-54
2022/09/09 09:50:24;;;;;;;1.63;0.60;;;22.80;56.00;;;;;;5078017;28;20519;-53
2022/09/09 09:53:02;;;;;;;2.47;0.65;;;22.70;55.60;;;;;;5068514;28;20033;-54
2022/09/09 09:55:36;;;;;;;2.33;0.90;;;22.60;55.30;;;;;;5091514;28;20053;-55
2022/09/09 09:58:05;;;;;;;1.90;0.68;;;22.80;56.10;;;;;;5060742;28;20041;-55
2022/09/09 10:00:34;;;;;;;3.88;0.60;;;22.50;56.20;;;;;;5086016;28;20548;-54
2022/09/09 10:03:28;;;;;;;2.42;1.13;;;22.50;57.60;;;;;;5086108;28;20043;-54
2022/09/09 10:05:56;;;;;;;1.58;0.60;;;22.50;56.20;;;;;;5072020;28;20705;-55
2022/09/09 10:08:27;;;;;;;6.32;1.05;;;22.50;56.70;;;;;;5090941;28;20054;-55
2022/09/09 10:11:09;;;;;;;5.15;0.75;;;22.60;56.40;;;;;;5085549;28;20047;-54
2022/09/09 10:14:06;;;;;;;1.52;0.77;;;22.70;55.70;;;;;;5087279;28;20575;-55
2022/09/09 10:16:46;;;;;;;1.38;0.90;;;22.80;55.60;;;;;;5094817;28;20036;-51
2022/09/09 10:19:19;;;;;;;2.60;0.85;;;22.80;55.40;;;;;;5094043;28;20071;-54
2022/09/09 10:21:57;;;;;;;1.73;0.60;;;22.80;55.70;;;;;;5095512;28;20398;-55
2022/09/09 10:24:27;;;;;;;2.90;0.73;;;22.70;55.60;;;;;;5099163;28;20492;-50
2022/09/09 10:27:17;;;;;;;1.10;0.55;;;22.70;56.50;;;;;;5101034;28;20519;-53
2022/09/09 10:29:57;;;;;;;3.00;0.77;;;22.70;56.20;;;;;;5101097;28;20465;-52
2022/09/09 10:32:38;;;;;;;5.32;1.40;;;22.70;56.60;;;;;;5102185;28;20446;-53
2022/09/09 10:35:29;;;;;;;2.75;1.02;;;22.70;56.30;;;;;;5103525;28;20043;-54
2022/09/09 10:38:05;;;;;;;2.17;0.50;;;22.80;56.10;;;;;;5099686;28;20066;-54
2022/09/09 10:40:34;;;;;;;4.15;0.75;;;22.80;56.20;;;;;;5098088;28;20492;-52
2022/09/09 10:43:17;;;;;;;2.10;0.80;;;22.80;56.20;;;;;;5104915;28;20043;-54
2022/09/09 10:46:21;;;;;;;3.83;0.77;;;22.90;55.40;;;;;;5101909;28;20056;-52
2022/09/09 10:49:23;;;;;;;1.52;0.65;;;22.90;55.30;;;;;;5100402;28;20035;-54
2022/09/09 10:52:01;;;;;;;5.88;1.05;;;23.00;54.90;;;;;;5100411;28;20044;-54
2022/09/09 10:54:49;;;;;;;2.78;1.27;;;23.10;56.20;;;;;;5106131;28;20504;-54
2022/09/09 10:57:48;;;;;;;1.65;0.43;;;23.10;55.60;;;;;;5101114;28;20044;-54
2022/09/09 11:00:31;;;;;;;3.50;2.03;;;23.30;55.60;;;;;;5088448;28;20032;-49
2022/09/09 11:03:04;;;;;;;2.83;0.90;;;23.20;54.80;;;;;;5092418;28;20087;-53
2022/09/09 11:05:42;;;;;;;1.95;0.75;;;23.40;55.60;;;;;;5070105;28;20487;-52
2022/09/09 11:08:15;;;;;;;4.53;0.73;;;23.40;54.60;;;;;;5099534;28;20123;-52
2022/09/09 11:10:58;;;;;;;1.75;0.60;;;23.50;54.50;;;;;;5097102;28;20064;-53
2022/09/09 11:13:39;;;;;;;2.28;0.70;;;23.60;54.50;;;;;;5081283;28;20132;-51
2022/09/09 11:16:21;;;;;;;1.55;0.70;;;23.70;55.00;;;;;;5079773;28;20094;-53
2022/09/09 11:18:49;;;;;;;2.25;0.70;;;23.80;54.00;;;;;;5065592;28;20040;-53
2022/09/09 11:21:32;;;;;;;4.88;0.75;;;23.90;54.50;;;;;;5084507;28;20043;-52
2022/09/09 11:24:04;;;;;;;2.13;0.60;;;24.00;53.90;;;;;;5068797;28;20043;-53
2022/09/09 11:26:37;;;;;;;;;;;24.00;53.20;;;;;;5089946;28;20126;-50
2022/09/09 11:29:23;;;;;;;1.15;0.88;;;24.20;53.70;;;;;;5092605;28;19931;-53
2022/09/09 11:32:46;;;;;;;0.98;0.40;;;24.20;52.80;;;;;;5095200;28;20651;-57
2022/09/09 11:35:51;;;;;;;1.20;0.50;;;24.10;52.70;;;;;;5020767;28;20049;-48
2022/09/09 11:38:27;;;;;;;2.03;0.50;;;24.00;52.50;;;;;;4916112;29;20048;-51
2022/09/09 11:41:02;;;;;;;3.08;0.75;;;24.00;52.50;;;;;;4984000;28;20065;-53
2022/09/09 11:43:40;;;;;;;2.08;0.50;;;23.90;54.40;;;;;;5043502;28;20059;-49
2022/09/09 11:46:10;;;;;;;1.38;0.93;;;23.80;54.90;;;;;;5091164;28;20131;-51
2022/09/09 11:48:43;;;;;;;1.70;0.75;;;23.70;55.10;;;;;;5091256;28;20058;-53
2022/09/09 11:51:20;;;;;;;1.98;0.88;;;23.60;55.10;;;;;;5088764;28;20040;-54
2022/09/09 11:53:51;;;;;;;2.40;0.68;;;23.40;56.00;;;;;;5062821;28;20076;-54
2022/09/09 11:56:27;;;;;;;1.90;0.60;;;23.30;57.20;;;;;;5067482;28;20040;-53
2022/09/09 11:59:01;;;;;;;3.03;1.13;;;23.10;56.50;;;;;;5085454;28;20047;-54
2022/09/09 12:01:45;;;;;;;3.50;0.88;;;23.00;57.40;;;;;;5090742;28;20763;-54
2022/09/09 12:04:17;;;;;;;2.42;0.80;;;22.90;58.10;;;;;;5095113;28;20044;-53
2022/09/09 12:07:03;;;;;;;3.78;0.70;;;22.80;59.10;;;;;;5094155;28;20048;-49
2022/09/09 12:09:46;;;;;;;3.20;0.93;;;22.80;59.00;;;;;;5080002;28;20048;-54
2022/09/09 12:12:12;;;;;;;1.55;0.80;;;22.80;59.40;;;;;;5080960;28;20517;-54
2022/09/09 12:14:43;;;;;;;1.75;0.77;;;22.70;59.60;;;;;;5085867;28;20588;-53
2022/09/09 12:17:21;;;;;;;3.28;0.88;;;22.80;59.40;;;;;;5070306;28;20130;-51
2022/09/09 12:20:04;;;;;;;2.40;0.65;;;22.80;59.50;;;;;;5083367;28;20040;-53
2022/09/09 12:22:36;;;;;;;;;;;22.80;59.10;;;;;;5084384;28;20032;-54
2022/09/09 12:25:19;;;;;;;2.80;0.77;;;22.90;59.10;;;;;;5094600;28;19932;-54
2022/09/09 12:27:57;;;;;;;1.42;0.65;;;22.90;59.60;;;;;;5101586;28;20102;-54
2022/09/09 12:30:34;;;;;;;2.78;1.10;;;22.90;58.70;;;;;;5073403;28;20040;-49
2022/09/09 12:33:12;;;;;;;2.40;1.05;;;23.00;58.70;;;;;;5089907;28;20052;-54
2022/09/09 12:35:43;;;;;;;3.28;0.70;;;23.10;58.60;;;;;;5084572;28;20042;-53
2022/09/09 12:38:19;;;;;;;1.67;0.90;;;23.20;58.90;;;;;;5101064;28;20114;-54
2022/09/09 12:40:55;;;;;;;4.45;1.00;;;23.40;57.90;;;;;;5102949;28;20042;-52
2022/09/09 12:43:24;;;;;;;1.98;0.90;;;23.50;57.80;;;;;;5074050;28;20118;-48
2022/09/09 12:46:03;;;;;;;2.40;0.80;;;23.60;58.40;;;;;;5070959;28;20040;-54
2022/09/09 12:48:45;;;;;;;2.17;0.82;;;23.70;58.40;;;;;;5080323;28;20590;-54
2022/09/09 12:51:28;;;;;;;2.58;0.60;;;23.80;58.00;;;;;;5068115;28;20119;-53
2022/09/09 12:53:55;;;;;;;3.45;0.80;;;24.10;57.30;;;;;;5097072;28;20048;-53
2022/09/09 12:56:26;;;;;;;2.25;0.85;;;24.30;56.80;;;;;;5090479;28;20442;-54
2022/09/09 12:58:55;;;;;;;1.70;0.95;;;24.40;55.90;;;;;;5097020;28;20028;-52
2022/09/09 13:01:31;;;;;;;1.65;0.57;;;24.50;55.70;;;;;;5092515;28;20040;-52
2022/09/09 13:03:59;;;;;;;2.67;0.43;;;24.60;56.00;;;;;;5090488;28;20518;-55
2022/09/09 13:06:30;;;;;;;0.88;0.65;;;24.70;55.30;;;;;;5096365;28;20118;-54
2022/09/09 13:08:59;;;;;;;1.37;0.80;;;24.80;55.20;;;;;;5109295;28;20135;-53
2022/09/09 13:11:42;;;;;;;2.92;1.10;;;24.80;54.80;;;;;;5106106;28;20040;-54
2022/09/09 13:14:20;;;;;;;;;;;24.90;54.40;;;;;;5105547;28;20048;-52
2022/09/09 13:17:26;;;;;;;1.35;0.63;;;24.90;54.60;;;;;;5107694;28;19920;-53
2022/09/09 13:19:55;;;;;;;3.65;0.60;;;24.70;53.70;;;;;;5067618;28;20135;-51
2022/09/09 13:22:30;;;;;;;1.30;0.70;;;24.60;54.60;;;;;;5089117;28;20031;-52
2022/09/09 13:25:26;;;;;;;2.25;0.80;;;24.50;54.10;;;;;;5100463;28;20423;-54
2022/09/09 13:28:02;;;;;;;1.40;0.35;;;24.50;54.20;;;;;;5094296;28;20036;-53
2022/09/09 13:30:39;;;;;;;3.75;1.52;;;24.40;54.10;;;;;;5096307;28;20044;-49
2022/09/09 13:33:09;;;;;;;1.20;0.57;;;24.30;53.90;;;;;;5091847;28;20047;-53